sensor_id;sensor_type;location;lat;lon;timestamp;P1;durP1;ratioP1;P2;durP2;ratioP2
14858;SDS011;7521;51.700;6.874;2024-03-02T00:02:48;2.63;;;1.17;;
14858;SDS011;7521;51.700;6.874;2024-03-02T00:05:53;1.90;;;1.10;;
14858;SDS011;7521;51.700;6.874;2024-03-02T00:08:59;2.33;;;1.37;;
14858;SDS011;7521;51.700;6.874;2024-03-02T00:12:04;1.60;;;1.10;;
14858;SDS011;7521;51.700;6.874;2024-03-02T00:15:27;2.70;;;1.27;;
14858;SDS011;7521;51.700;6.874;2024-03-02T00:18:35;2.57;;;0.93;;
14858;SDS011;7521;51.700;6.874;2024-03-02T00:21:41;2.30;;;0.90;;
14858;SDS011;7521;51.700;6.874;2024-03-02T00:24:46;1.43;;;1.00;;
14858;SDS011;7521;51.700;6.874;2024-03-02T00:27:51;2.92;;;1.27;;
14858;SDS011;7521;51.700;6.874;2024-03-02T00:30:57;2.08;;;1.10;;
14858;SDS011;7521;51.700;6.874;2024-03-02T00:34:03;2.70;;;1.00;;
14858;SDS011;7521;51.700;6.874;2024-03-02T00:37:10;3.80;;;1.30;;
14858;SDS011;7521;51.700;6.874;2024-03-02T00:40:16;2.87;;;1.30;;
14858;SDS011;7521;51.700;6.874;2024-03-02T00:46:46;2.87;;;1.07;;
14858;SDS011;7521;51.700;6.874;2024-03-02T00:49:51;2.90;;;1.10;;
14858;SDS011;7521;51.700;6.874;2024-03-02T00:52:56;1.80;;;1.30;;
14858;SDS011;7521;51.700;6.874;2024-03-02T00:56:02;1.93;;;1.10;;
14858;SDS011;7521;51.700;6.874;2024-03-02T00:59:07;1.80;;;1.23;;
14858;SDS011;7521;51.700;6.874;2024-03-02T01:02:13;2.83;;;1.30;;
14858;SDS011;7521;51.700;6.874;2024-03-02T01:05:18;2.15;;;1.20;;
14858;SDS011;7521;51.700;6.874;2024-03-02T01:08:24;4.30;;;1.10;;
14858;SDS011;7521;51.700;6.874;2024-03-02T01:11:29;3.10;;;1.10;;
14858;SDS011;7521;51.700;6.874;2024-03-02T01:14:35;2.93;;;1.20;;
14858;SDS011;7521;51.700;6.874;2024-03-02T01:17:40;2.15;;;1.15;;
14858;SDS011;7521;51.700;6.874;2024-03-02T01:20:45;4.43;;;1.30;;
14858;SDS011;7521;51.700;6.874;2024-03-02T01:23:50;2.55;;;0.98;;
14858;SDS011;7521;51.700;6.874;2024-03-02T01:26:55;2.63;;;1.07;;
14858;SDS011;7521;51.700;6.874;2024-03-02T01:30:01;2.33;;;1.07;;
14858;SDS011;7521;51.700;6.874;2024-03-02T01:33:09;2.83;;;1.05;;
14858;SDS011;7521;51.700;6.874;2024-03-02T01:36:14;2.30;;;1.00;;
14858;SDS011;7521;51.700;6.874;2024-03-02T01:39:19;3.90;;;1.20;;
14858;SDS011;7521;51.700;6.874;2024-03-02T01:42:24;3.40;;;1.02;;
14858;SDS011;7521;51.700;6.874;2024-03-02T01:45:30;2.08;;;1.00;;
14858;SDS011;7521;51.700;6.874;2024-03-02T01:48:35;1.37;;;0.77;;
14858;SDS011;7521;51.700;6.874;2024-03-02T01:51:40;2.05;;;1.10;;
14858;SDS011;7521;51.700;6.874;2024-03-02T01:54:45;3.57;;;1.00;;
14858;SDS011;7521;51.700;6.874;2024-03-02T01:57:51;1.90;;;0.98;;
14858;SDS011;7521;51.700;6.874;2024-03-02T02:00:57;2.43;;;0.90;;
14858;SDS011;7521;51.700;6.874;2024-03-02T02:04:02;2.65;;;1.00;;
14858;SDS011;7521;51.700;6.874;2024-03-02T02:07:07;4.40;;;1.20;;
14858;SDS011;7521;51.700;6.874;2024-03-02T02:10:12;1.83;;;0.90;;
14858;SDS011;7521;51.700;6.874;2024-03-02T02:13:17;2.43;;;1.20;;
14858;SDS011;7521;51.700;6.874;2024-03-02T02:16:23;2.83;;;1.30;;
14858;SDS011;7521;51.700;6.874;2024-03-02T02:19:28;4.40;;;1.02;;
14858;SDS011;7521;51.700;6.874;2024-03-02T02:22:33;4.87;;;1.30;;
14858;SDS011;7521;51.700;6.874;2024-03-02T02:25:38;2.17;;;0.98;;
14858;SDS011;7521;51.700;6.874;2024-03-02T02:28:44;1.77;;;0.90;;
14858;SDS011;7521;51.700;6.874;2024-03-02T02:31:52;2.13;;;0.93;;
14858;SDS011;7521;51.700;6.874;2024-03-02T02:34:57;1.50;;;0.77;;
14858;SDS011;7521;51.700;6.874;2024-03-02T02:38:02;2.50;;;1.10;;
14858;SDS011;7521;51.700;6.874;2024-03-02T02:41:08;0.90;;;0.60;;
14858;SDS011;7521;51.700;6.874;2024-03-02T02:44:13;1.90;;;0.90;;
14858;SDS011;7521;51.700;6.874;2024-03-02T02:47:19;2.80;;;1.20;;
14858;SDS011;7521;51.700;6.874;2024-03-02T02:50:24;1.80;;;0.88;;
14858;SDS011;7521;51.700;6.874;2024-03-02T02:53:29;1.38;;;0.82;;
14858;SDS011;7521;51.700;6.874;2024-03-02T02:56:34;2.50;;;0.80;;
14858;SDS011;7521;51.700;6.874;2024-03-02T02:59:39;3.25;;;0.80;;
14858;SDS011;7521;51.700;6.874;2024-03-02T03:02:45;3.50;;;1.00;;
14858;SDS011;7521;51.700;6.874;2024-03-02T03:05:52;1.33;;;0.77;;
14858;SDS011;7521;51.700;6.874;2024-03-02T03:08:57;3.22;;;1.10;;
14858;SDS011;7521;51.700;6.874;2024-03-02T03:12:02;2.03;;;1.00;;
14858;SDS011;7521;51.700;6.874;2024-03-02T03:15:08;2.13;;;1.10;;
14858;SDS011;7521;51.700;6.874;2024-03-02T03:18:13;3.00;;;0.93;;
14858;SDS011;7521;51.700;6.874;2024-03-02T03:21:18;2.10;;;0.83;;
14858;SDS011;7521;51.700;6.874;2024-03-02T03:24:24;2.23;;;0.97;;
14858;SDS011;7521;51.700;6.874;2024-03-02T03:27:29;3.87;;;1.20;;
14858;SDS011;7521;51.700;6.874;2024-03-02T03:30:34;3.60;;;1.00;;
14858;SDS011;7521;51.700;6.874;2024-03-02T03:33:39;2.53;;;0.97;;
14858;SDS011;7521;51.700;6.874;2024-03-02T03:36:44;1.75;;;0.98;;
14858;SDS011;7521;51.700;6.874;2024-03-02T03:39:50;2.08;;;0.80;;
14858;SDS011;7521;51.700;6.874;2024-03-02T03:42:55;1.92;;;1.08;;
14858;SDS011;7521;51.700;6.874;2024-03-02T03:46:01;1.93;;;0.60;;
14858;SDS011;7521;51.700;6.874;2024-03-02T03:49:07;2.90;;;0.90;;
14858;SDS011;7521;51.700;6.874;2024-03-02T03:52:12;2.03;;;0.87;;
14858;SDS011;7521;51.700;6.874;2024-03-02T03:55:18;2.37;;;1.30;;
14858;SDS011;7521;51.700;6.874;2024-03-02T03:58:23;1.63;;;0.80;;
14858;SDS011;7521;51.700;6.874;2024-03-02T04:01:31;2.43;;;1.03;;
14858;SDS011;7521;51.700;6.874;2024-03-02T04:04:37;1.73;;;0.97;;
14858;SDS011;7521;51.700;6.874;2024-03-02T04:07:42;2.20;;;0.83;;
14858;SDS011;7521;51.700;6.874;2024-03-02T04:10:48;2.60;;;0.80;;
14858;SDS011;7521;51.700;6.874;2024-03-02T04:13:53;2.73;;;0.80;;
14858;SDS011;7521;51.700;6.874;2024-03-02T04:16:58;2.73;;;1.30;;
14858;SDS011;7521;51.700;6.874;2024-03-02T04:20:04;1.53;;;0.90;;
14858;SDS011;7521;51.700;6.874;2024-03-02T04:23:12;2.00;;;1.17;;
14858;SDS011;7521;51.700;6.874;2024-03-02T04:26:17;3.05;;;1.25;;
14858;SDS011;7521;51.700;6.874;2024-03-02T04:29:27;2.63;;;1.70;;
14858;SDS011;7521;51.700;6.874;2024-03-02T04:32:32;2.97;;;1.57;;
14858;SDS011;7521;51.700;6.874;2024-03-02T04:35:37;3.53;;;1.33;;
14858;SDS011;7521;51.700;6.874;2024-03-02T04:38:42;4.27;;;1.93;;
14858;SDS011;7521;51.700;6.874;2024-03-02T04:41:48;2.30;;;1.60;;
14858;SDS011;7521;51.700;6.874;2024-03-02T04:44:53;3.67;;;1.60;;
14858;SDS011;7521;51.700;6.874;2024-03-02T04:47:58;4.80;;;1.70;;
14858;SDS011;7521;51.700;6.874;2024-03-02T04:51:03;3.63;;;1.70;;
14858;SDS011;7521;51.700;6.874;2024-03-02T04:54:08;3.30;;;1.90;;
14858;SDS011;7521;51.700;6.874;2024-03-02T04:57:14;2.45;;;1.40;;
14858;SDS011;7521;51.700;6.874;2024-03-02T05:00:19;3.60;;;1.60;;
14858;SDS011;7521;51.700;6.874;2024-03-02T05:03:24;3.43;;;1.83;;
14858;SDS011;7521;51.700;6.874;2024-03-02T05:06:29;4.80;;;1.85;;
14858;SDS011;7521;51.700;6.874;2024-03-02T05:09:35;4.27;;;1.80;;
14858;SDS011;7521;51.700;6.874;2024-03-02T05:12:40;6.47;;;1.90;;
14858;SDS011;7521;51.700;6.874;2024-03-02T05:15:48;2.07;;;1.37;;
14858;SDS011;7521;51.700;6.874;2024-03-02T05:18:53;3.27;;;1.80;;
14858;SDS011;7521;51.700;6.874;2024-03-02T05:21:58;4.25;;;1.70;;
14858;SDS011;7521;51.700;6.874;2024-03-02T05:25:04;3.43;;;1.67;;
14858;SDS011;7521;51.700;6.874;2024-03-02T05:28:09;5.00;;;1.53;;
14858;SDS011;7521;51.700;6.874;2024-03-02T05:31:15;3.00;;;1.47;;
14858;SDS011;7521;51.700;6.874;2024-03-02T05:34:20;4.00;;;1.90;;
14858;SDS011;7521;51.700;6.874;2024-03-02T05:37:25;4.05;;;2.05;;
14858;SDS011;7521;51.700;6.874;2024-03-02T05:40:30;1.75;;;1.30;;
14858;SDS011;7521;51.700;6.874;2024-03-02T05:43:35;1.87;;;1.40;;
14858;SDS011;7521;51.700;6.874;2024-03-02T05:46:41;5.30;;;1.83;;
14858;SDS011;7521;51.700;6.874;2024-03-02T05:49:47;3.93;;;2.20;;
14858;SDS011;7521;51.700;6.874;2024-03-02T05:52:52;3.15;;;2.17;;
14858;SDS011;7521;51.700;6.874;2024-03-02T05:55:57;5.23;;;2.27;;
14858;SDS011;7521;51.700;6.874;2024-03-02T05:59:02;3.42;;;2.00;;
14858;SDS011;7521;51.700;6.874;2024-03-02T06:02:17;3.60;;;1.73;;
14858;SDS011;7521;51.700;6.874;2024-03-02T06:05:22;5.18;;;1.83;;
14858;SDS011;7521;51.700;6.874;2024-03-02T06:08:27;3.40;;;1.60;;
14858;SDS011;7521;51.700;6.874;2024-03-02T06:11:36;2.15;;;1.50;;
14858;SDS011;7521;51.700;6.874;2024-03-02T06:14:44;4.47;;;1.60;;
14858;SDS011;7521;51.700;6.874;2024-03-02T06:17:49;2.30;;;1.40;;
14858;SDS011;7521;51.700;6.874;2024-03-02T06:20:54;1.95;;;1.60;;
14858;SDS011;7521;51.700;6.874;2024-03-02T06:23:59;3.97;;;1.20;;
14858;SDS011;7521;51.700;6.874;2024-03-02T06:27:05;4.10;;;1.43;;
14858;SDS011;7521;51.700;6.874;2024-03-02T06:30:10;2.20;;;1.20;;
14858;SDS011;7521;51.700;6.874;2024-03-02T06:33:16;2.60;;;1.20;;
14858;SDS011;7521;51.700;6.874;2024-03-02T06:36:21;2.70;;;1.43;;
14858;SDS011;7521;51.700;6.874;2024-03-02T06:39:28;3.70;;;1.47;;
14858;SDS011;7521;51.700;6.874;2024-03-02T06:42:33;4.07;;;1.47;;
14858;SDS011;7521;51.700;6.874;2024-03-02T06:45:44;3.77;;;1.50;;
14858;SDS011;7521;51.700;6.874;2024-03-02T06:48:50;2.93;;;1.20;;
14858;SDS011;7521;51.700;6.874;2024-03-02T06:51:55;4.60;;;1.60;;
14858;SDS011;7521;51.700;6.874;2024-03-02T06:55:00;2.50;;;1.30;;
14858;SDS011;7521;51.700;6.874;2024-03-02T06:58:06;5.10;;;1.40;;
14858;SDS011;7521;51.700;6.874;2024-03-02T07:01:11;3.22;;;1.70;;
14858;SDS011;7521;51.700;6.874;2024-03-02T07:04:16;4.07;;;1.70;;
14858;SDS011;7521;51.700;6.874;2024-03-02T07:07:21;2.22;;;1.40;;
14858;SDS011;7521;51.700;6.874;2024-03-02T07:10:27;1.87;;;1.20;;
14858;SDS011;7521;51.700;6.874;2024-03-02T07:13:32;2.87;;;1.57;;
14858;SDS011;7521;51.700;6.874;2024-03-02T07:16:37;4.83;;;1.87;;
14858;SDS011;7521;51.700;6.874;2024-03-02T07:19:43;2.70;;;1.70;;
14858;SDS011;7521;51.700;6.874;2024-03-02T07:22:49;3.58;;;1.45;;
14858;SDS011;7521;51.700;6.874;2024-03-02T07:25:54;3.80;;;1.93;;
14858;SDS011;7521;51.700;6.874;2024-03-02T07:29:01;4.03;;;1.57;;
14858;SDS011;7521;51.700;6.874;2024-03-02T07:32:07;3.13;;;1.37;;
14858;SDS011;7521;51.700;6.874;2024-03-02T07:35:12;4.77;;;2.10;;
14858;SDS011;7521;51.700;6.874;2024-03-02T07:38:18;6.60;;;1.77;;
14858;SDS011;7521;51.700;6.874;2024-03-02T07:41:23;4.17;;;1.30;;
14858;SDS011;7521;51.700;6.874;2024-03-02T07:44:28;2.37;;;1.30;;
14858;SDS011;7521;51.700;6.874;2024-03-02T07:47:34;2.43;;;1.50;;
14858;SDS011;7521;51.700;6.874;2024-03-02T07:50:39;3.13;;;1.30;;
14858;SDS011;7521;51.700;6.874;2024-03-02T07:53:45;2.30;;;1.40;;
14858;SDS011;7521;51.700;6.874;2024-03-02T07:56:50;3.47;;;1.47;;
14858;SDS011;7521;51.700;6.874;2024-03-02T07:59:55;2.13;;;1.50;;
14858;SDS011;7521;51.700;6.874;2024-03-02T08:03:00;2.87;;;1.60;;
14858;SDS011;7521;51.700;6.874;2024-03-02T08:06:08;1.93;;;1.40;;
14858;SDS011;7521;51.700;6.874;2024-03-02T08:09:14;3.13;;;1.70;;
14858;SDS011;7521;51.700;6.874;2024-03-02T08:12:19;2.47;;;1.42;;
14858;SDS011;7521;51.700;6.874;2024-03-02T08:15:26;3.67;;;1.93;;
14858;SDS011;7521;51.700;6.874;2024-03-02T08:18:31;6.50;;;1.57;;
14858;SDS011;7521;51.700;6.874;2024-03-02T08:21:37;4.43;;;1.65;;
14858;SDS011;7521;51.700;6.874;2024-03-02T08:24:42;2.77;;;1.60;;
14858;SDS011;7521;51.700;6.874;2024-03-02T08:27:47;3.33;;;1.70;;
14858;SDS011;7521;51.700;6.874;2024-03-02T08:30:52;2.73;;;1.60;;
14858;SDS011;7521;51.700;6.874;2024-03-02T08:33:58;3.80;;;1.58;;
14858;SDS011;7521;51.700;6.874;2024-03-02T08:37:03;2.83;;;1.73;;
14858;SDS011;7521;51.700;6.874;2024-03-02T08:40:09;2.73;;;1.60;;
14858;SDS011;7521;51.700;6.874;2024-03-02T08:43:15;2.60;;;1.40;;
14858;SDS011;7521;51.700;6.874;2024-03-02T08:46:20;2.57;;;1.43;;
14858;SDS011;7521;51.700;6.874;2024-03-02T08:49:26;2.00;;;1.27;;
14858;SDS011;7521;51.700;6.874;2024-03-02T08:52:31;3.03;;;1.48;;
14858;SDS011;7521;51.700;6.874;2024-03-02T08:55:36;3.07;;;1.97;;
14858;SDS011;7521;51.700;6.874;2024-03-02T08:58:41;2.30;;;1.50;;
14858;SDS011;7521;51.700;6.874;2024-03-02T09:01:47;2.70;;;1.67;;
14858;SDS011;7521;51.700;6.874;2024-03-02T09:04:53;2.77;;;1.50;;
14858;SDS011;7521;51.700;6.874;2024-03-02T09:07:58;6.10;;;1.50;;
14858;SDS011;7521;51.700;6.874;2024-03-02T09:11:03;3.72;;;1.52;;
14858;SDS011;7521;51.700;6.874;2024-03-02T09:14:09;2.57;;;1.40;;
14858;SDS011;7521;51.700;6.874;2024-03-02T09:17:16;2.47;;;1.50;;
14858;SDS011;7521;51.700;6.874;2024-03-02T09:20:21;4.87;;;1.43;;
14858;SDS011;7521;51.700;6.874;2024-03-02T09:23:26;4.53;;;1.60;;
14858;SDS011;7521;51.700;6.874;2024-03-02T09:26:31;2.28;;;1.50;;
14858;SDS011;7521;51.700;6.874;2024-03-02T09:29:36;2.38;;;1.40;;
14858;SDS011;7521;51.700;6.874;2024-03-02T09:32:41;2.83;;;1.40;;
14858;SDS011;7521;51.700;6.874;2024-03-02T09:35:47;2.97;;;1.70;;
14858;SDS011;7521;51.700;6.874;2024-03-02T09:38:53;3.63;;;1.43;;
14858;SDS011;7521;51.700;6.874;2024-03-02T09:41:59;2.88;;;1.40;;
14858;SDS011;7521;51.700;6.874;2024-03-02T09:45:04;3.50;;;1.63;;
14858;SDS011;7521;51.700;6.874;2024-03-02T09:48:10;2.27;;;1.40;;
14858;SDS011;7521;51.700;6.874;2024-03-02T09:51:15;2.17;;;1.20;;
14858;SDS011;7521;51.700;6.874;2024-03-02T09:54:20;3.90;;;1.20;;
14858;SDS011;7521;51.700;6.874;2024-03-02T09:57:26;2.13;;;1.20;;
14858;SDS011;7521;51.700;6.874;2024-03-02T10:00:31;1.95;;;1.20;;
14858;SDS011;7521;51.700;6.874;2024-03-02T10:03:36;4.13;;;1.40;;
14858;SDS011;7521;51.700;6.874;2024-03-02T10:06:41;2.83;;;1.40;;
14858;SDS011;7521;51.700;6.874;2024-03-02T10:09:47;2.20;;;1.30;;
14858;SDS011;7521;51.700;6.874;2024-03-02T10:13:03;3.93;;;1.30;;
14858;SDS011;7521;51.700;6.874;2024-03-02T10:16:11;2.13;;;1.17;;
14858;SDS011;7521;51.700;6.874;2024-03-02T10:22:25;2.70;;;1.87;;
14858;SDS011;7521;51.700;6.874;2024-03-02T10:25:32;2.40;;;1.30;;
14858;SDS011;7521;51.700;6.874;2024-03-02T10:28:39;3.60;;;1.20;;
14858;SDS011;7521;51.700;6.874;2024-03-02T10:31:50;2.13;;;0.97;;
14858;SDS011;7521;51.700;6.874;2024-03-02T10:34:56;2.50;;;0.80;;
14858;SDS011;7521;51.700;6.874;2024-03-02T10:38:01;4.23;;;1.20;;
14858;SDS011;7521;51.700;6.874;2024-03-02T10:41:08;1.43;;;0.90;;
14858;SDS011;7521;51.700;6.874;2024-03-02T10:44:13;1.93;;;0.90;;
14858;SDS011;7521;51.700;6.874;2024-03-02T10:47:19;2.37;;;1.10;;
14858;SDS011;7521;51.700;6.874;2024-03-02T10:50:25;2.43;;;1.03;;
14858;SDS011;7521;51.700;6.874;2024-03-02T10:53:30;3.00;;;1.00;;
14858;SDS011;7521;51.700;6.874;2024-03-02T10:59:46;3.03;;;1.43;;
14858;SDS011;7521;51.700;6.874;2024-03-02T11:02:57;1.63;;;0.70;;
14858;SDS011;7521;51.700;6.874;2024-03-02T11:06:03;2.57;;;0.93;;
14858;SDS011;7521;51.700;6.874;2024-03-02T11:09:11;2.17;;;0.87;;
14858;SDS011;7521;51.700;6.874;2024-03-02T11:12:35;2.00;;;0.80;;
14858;SDS011;7521;51.700;6.874;2024-03-02T11:15:43;3.93;;;0.93;;
14858;SDS011;7521;51.700;6.874;2024-03-02T11:18:48;1.40;;;0.70;;
14858;SDS011;7521;51.700;6.874;2024-03-02T11:21:54;4.10;;;1.60;;
14858;SDS011;7521;51.700;6.874;2024-03-02T11:25:00;5.53;;;2.20;;
14858;SDS011;7521;51.700;6.874;2024-03-02T11:28:06;3.22;;;1.30;;
14858;SDS011;7521;51.700;6.874;2024-03-02T11:31:14;5.43;;;1.43;;
14858;SDS011;7521;51.700;6.874;2024-03-02T11:34:31;4.17;;;1.43;;
14858;SDS011;7521;51.700;6.874;2024-03-02T11:37:36;5.07;;;1.43;;
14858;SDS011;7521;51.700;6.874;2024-03-02T11:40:42;4.73;;;1.60;;
14858;SDS011;7521;51.700;6.874;2024-03-02T11:43:47;3.90;;;0.83;;
14858;SDS011;7521;51.700;6.874;2024-03-02T11:47:00;1.53;;;0.80;;
14858;SDS011;7521;51.700;6.874;2024-03-02T11:50:05;2.20;;;1.20;;
14858;SDS011;7521;51.700;6.874;2024-03-02T11:53:11;5.70;;;1.10;;
14858;SDS011;7521;51.700;6.874;2024-03-02T11:56:18;1.60;;;1.00;;
14858;SDS011;7521;51.700;6.874;2024-03-02T11:59:23;2.27;;;0.80;;
14858;SDS011;7521;51.700;6.874;2024-03-02T12:02:29;3.30;;;1.10;;
14858;SDS011;7521;51.700;6.874;2024-03-02T12:05:35;1.40;;;0.90;;
14858;SDS011;7521;51.700;6.874;2024-03-02T12:08:40;2.57;;;1.00;;
14858;SDS011;7521;51.700;6.874;2024-03-02T12:11:45;1.30;;;0.73;;
14858;SDS011;7521;51.700;6.874;2024-03-02T12:14:51;2.70;;;0.87;;
14858;SDS011;7521;51.700;6.874;2024-03-02T12:17:58;2.50;;;0.77;;
14858;SDS011;7521;51.700;6.874;2024-03-02T12:21:04;2.00;;;0.80;;
14858;SDS011;7521;51.700;6.874;2024-03-02T12:24:13;2.53;;;0.93;;
14858;SDS011;7521;51.700;6.874;2024-03-02T12:27:18;1.70;;;0.80;;
14858;SDS011;7521;51.700;6.874;2024-03-02T12:30:27;1.10;;;0.70;;
14858;SDS011;7521;51.700;6.874;2024-03-02T12:33:33;1.73;;;0.73;;
14858;SDS011;7521;51.700;6.874;2024-03-02T12:36:39;3.77;;;0.80;;
14858;SDS011;7521;51.700;6.874;2024-03-02T12:39:45;2.47;;;0.97;;
14858;SDS011;7521;51.700;6.874;2024-03-02T12:42:51;1.40;;;1.00;;
14858;SDS011;7521;51.700;6.874;2024-03-02T12:45:56;2.03;;;0.90;;
14858;SDS011;7521;51.700;6.874;2024-03-02T12:49:08;0.93;;;0.60;;
14858;SDS011;7521;51.700;6.874;2024-03-02T12:52:14;1.00;;;0.40;;
14858;SDS011;7521;51.700;6.874;2024-03-02T12:55:20;1.67;;;0.60;;
14858;SDS011;7521;51.700;6.874;2024-03-02T12:58:26;1.47;;;0.70;;
14858;SDS011;7521;51.700;6.874;2024-03-02T13:01:31;2.97;;;0.63;;
14858;SDS011;7521;51.700;6.874;2024-03-02T13:04:37;2.97;;;0.90;;
14858;SDS011;7521;51.700;6.874;2024-03-02T13:07:42;2.10;;;0.80;;
14858;SDS011;7521;51.700;6.874;2024-03-02T13:10:47;2.67;;;0.63;;
14858;SDS011;7521;51.700;6.874;2024-03-02T13:13:53;4.03;;;1.00;;
14858;SDS011;7521;51.700;6.874;2024-03-02T13:16:58;1.40;;;0.60;;
14858;SDS011;7521;51.700;6.874;2024-03-02T13:20:05;1.87;;;0.67;;
14858;SDS011;7521;51.700;6.874;2024-03-02T13:23:13;2.43;;;0.70;;
14858;SDS011;7521;51.700;6.874;2024-03-02T13:26:18;2.67;;;0.77;;
14858;SDS011;7521;51.700;6.874;2024-03-02T13:29:23;4.10;;;0.83;;
14858;SDS011;7521;51.700;6.874;2024-03-02T13:32:29;2.20;;;0.43;;
14858;SDS011;7521;51.700;6.874;2024-03-02T13:35:34;2.63;;;0.77;;
14858;SDS011;7521;51.700;6.874;2024-03-02T13:38:39;3.10;;;0.90;;
14858;SDS011;7521;51.700;6.874;2024-03-02T13:41:44;4.82;;;0.60;;
14858;SDS011;7521;51.700;6.874;2024-03-02T13:44:57;1.10;;;0.50;;
14858;SDS011;7521;51.700;6.874;2024-03-02T13:48:02;2.10;;;0.70;;
14858;SDS011;7521;51.700;6.874;2024-03-02T13:51:08;1.97;;;0.70;;
14858;SDS011;7521;51.700;6.874;2024-03-02T13:54:13;1.88;;;0.70;;
14858;SDS011;7521;51.700;6.874;2024-03-02T13:57:18;1.42;;;0.60;;
14858;SDS011;7521;51.700;6.874;2024-03-02T14:00:24;1.77;;;0.60;;
14858;SDS011;7521;51.700;6.874;2024-03-02T14:03:30;1.00;;;0.53;;
14858;SDS011;7521;51.700;6.874;2024-03-02T14:06:36;3.73;;;1.43;;
14858;SDS011;7521;51.700;6.874;2024-03-02T14:09:41;1.57;;;0.87;;
14858;SDS011;7521;51.700;6.874;2024-03-02T14:12:46;3.80;;;0.67;;
14858;SDS011;7521;51.700;6.874;2024-03-02T14:15:51;3.63;;;1.20;;
14858;SDS011;7521;51.700;6.874;2024-03-02T14:18:57;1.15;;;0.70;;
14858;SDS011;7521;51.700;6.874;2024-03-02T14:22:02;1.27;;;0.70;;
14858;SDS011;7521;51.700;6.874;2024-03-02T14:25:08;2.70;;;1.10;;
14858;SDS011;7521;51.700;6.874;2024-03-02T14:28:13;1.63;;;0.80;;
14858;SDS011;7521;51.700;6.874;2024-03-02T14:31:18;1.17;;;0.80;;
14858;SDS011;7521;51.700;6.874;2024-03-02T14:34:24;1.00;;;0.50;;
14858;SDS011;7521;51.700;6.874;2024-03-02T14:37:30;1.08;;;0.60;;
14858;SDS011;7521;51.700;6.874;2024-03-02T14:40:35;2.27;;;0.70;;
14858;SDS011;7521;51.700;6.874;2024-03-02T14:43:40;2.78;;;0.63;;
14858;SDS011;7521;51.700;6.874;2024-03-02T14:46:48;1.00;;;0.40;;
14858;SDS011;7521;51.700;6.874;2024-03-02T14:49:53;0.80;;;0.50;;
14858;SDS011;7521;51.700;6.874;2024-03-02T14:52:59;1.02;;;0.60;;
14858;SDS011;7521;51.700;6.874;2024-03-02T14:56:05;0.67;;;0.43;;
14858;SDS011;7521;51.700;6.874;2024-03-02T14:59:10;1.17;;;0.50;;
14858;SDS011;7521;51.700;6.874;2024-03-02T15:02:15;1.73;;;0.60;;
14858;SDS011;7521;51.700;6.874;2024-03-02T15:05:21;3.40;;;0.80;;
14858;SDS011;7521;51.700;6.874;2024-03-02T15:08:26;1.10;;;0.40;;
14858;SDS011;7521;51.700;6.874;2024-03-02T15:11:31;1.30;;;0.70;;
14858;SDS011;7521;51.700;6.874;2024-03-02T15:14:36;1.93;;;0.87;;
14858;SDS011;7521;51.700;6.874;2024-03-02T15:17:43;1.27;;;0.50;;
14858;SDS011;7521;51.700;6.874;2024-03-02T15:20:49;0.80;;;0.60;;
14858;SDS011;7521;51.700;6.874;2024-03-02T15:23:54;1.20;;;0.60;;
14858;SDS011;7521;51.700;6.874;2024-03-02T15:26:59;1.70;;;0.50;;
14858;SDS011;7521;51.700;6.874;2024-03-02T15:30:04;1.00;;;0.40;;
14858;SDS011;7521;51.700;6.874;2024-03-02T15:33:10;0.57;;;0.37;;
14858;SDS011;7521;51.700;6.874;2024-03-02T15:36:15;2.10;;;1.23;;
14858;SDS011;7521;51.700;6.874;2024-03-02T15:39:20;1.17;;;0.60;;
14858;SDS011;7521;51.700;6.874;2024-03-02T15:42:25;1.35;;;0.60;;
14858;SDS011;7521;51.700;6.874;2024-03-02T15:45:31;1.27;;;0.50;;
14858;SDS011;7521;51.700;6.874;2024-03-02T15:48:38;0.93;;;0.50;;
14858;SDS011;7521;51.700;6.874;2024-03-02T15:51:44;1.77;;;0.80;;
14858;SDS011;7521;51.700;6.874;2024-03-02T15:54:49;0.97;;;0.63;;
14858;SDS011;7521;51.700;6.874;2024-03-02T15:57:55;2.17;;;0.70;;
14858;SDS011;7521;51.700;6.874;2024-03-02T16:01:00;1.70;;;0.80;;
14858;SDS011;7521;51.700;6.874;2024-03-02T16:04:05;1.33;;;0.73;;
14858;SDS011;7521;51.700;6.874;2024-03-02T16:07:10;1.33;;;0.85;;
14858;SDS011;7521;51.700;6.874;2024-03-02T16:10:16;1.23;;;0.60;;
14858;SDS011;7521;51.700;6.874;2024-03-02T16:13:21;1.63;;;0.80;;
14858;SDS011;7521;51.700;6.874;2024-03-02T16:16:26;0.90;;;0.70;;
14858;SDS011;7521;51.700;6.874;2024-03-02T16:19:31;1.75;;;1.02;;
14858;SDS011;7521;51.700;6.874;2024-03-02T16:22:37;1.93;;;0.90;;
14858;SDS011;7521;51.700;6.874;2024-03-02T16:25:42;2.72;;;0.98;;
14858;SDS011;7521;51.700;6.874;2024-03-02T16:28:47;2.78;;;0.70;;
14858;SDS011;7521;51.700;6.874;2024-03-02T16:31:52;1.45;;;0.80;;
14858;SDS011;7521;51.700;6.874;2024-03-02T16:34:57;2.00;;;1.13;;
14858;SDS011;7521;51.700;6.874;2024-03-02T16:38:03;2.37;;;1.23;;
14858;SDS011;7521;51.700;6.874;2024-03-02T16:41:08;1.13;;;0.80;;
14858;SDS011;7521;51.700;6.874;2024-03-02T16:44:13;1.67;;;0.83;;
14858;SDS011;7521;51.700;6.874;2024-03-02T16:47:19;1.57;;;1.00;;
14858;SDS011;7521;51.700;6.874;2024-03-02T16:50:24;1.88;;;1.10;;
14858;SDS011;7521;51.700;6.874;2024-03-02T16:53:29;1.93;;;0.70;;
14858;SDS011;7521;51.700;6.874;2024-03-02T16:56:44;6.57;;;1.10;;
14858;SDS011;7521;51.700;6.874;2024-03-02T16:59:49;2.50;;;1.03;;
14858;SDS011;7521;51.700;6.874;2024-03-02T17:02:54;1.57;;;1.00;;
14858;SDS011;7521;51.700;6.874;2024-03-02T17:05:59;2.57;;;1.27;;
14858;SDS011;7521;51.700;6.874;2024-03-02T17:09:05;3.60;;;1.27;;
14858;SDS011;7521;51.700;6.874;2024-03-02T17:12:10;2.07;;;1.50;;
14858;SDS011;7521;51.700;6.874;2024-03-02T17:15:15;1.40;;;1.00;;
14858;SDS011;7521;51.700;6.874;2024-03-02T17:18:20;1.90;;;1.23;;
14858;SDS011;7521;51.700;6.874;2024-03-02T17:21:26;1.80;;;0.90;;
14858;SDS011;7521;51.700;6.874;2024-03-02T17:24:31;1.97;;;0.90;;
14858;SDS011;7521;51.700;6.874;2024-03-02T17:27:36;2.95;;;1.10;;
14858;SDS011;7521;51.700;6.874;2024-03-02T17:30:41;3.53;;;1.00;;
14858;SDS011;7521;51.700;6.874;2024-03-02T17:33:47;1.10;;;0.85;;
14858;SDS011;7521;51.700;6.874;2024-03-02T17:36:52;4.23;;;1.03;;
14858;SDS011;7521;51.700;6.874;2024-03-02T17:39:57;2.93;;;1.13;;
14858;SDS011;7521;51.700;6.874;2024-03-02T17:43:03;2.93;;;1.10;;
14858;SDS011;7521;51.700;6.874;2024-03-02T17:46:08;3.40;;;1.10;;
14858;SDS011;7521;51.700;6.874;2024-03-02T17:49:19;3.57;;;1.10;;
14858;SDS011;7521;51.700;6.874;2024-03-02T17:52:24;2.83;;;1.00;;
14858;SDS011;7521;51.700;6.874;2024-03-02T17:55:29;1.80;;;1.30;;
14858;SDS011;7521;51.700;6.874;2024-03-02T17:58:35;2.13;;;0.90;;
14858;SDS011;7521;51.700;6.874;2024-03-02T18:01:41;2.73;;;1.27;;
14858;SDS011;7521;51.700;6.874;2024-03-02T18:04:46;2.53;;;1.70;;
14858;SDS011;7521;51.700;6.874;2024-03-02T18:07:51;3.22;;;1.60;;
14858;SDS011;7521;51.700;6.874;2024-03-02T18:10:57;1.87;;;1.03;;
14858;SDS011;7521;51.700;6.874;2024-03-02T18:14:02;2.07;;;0.93;;
14858;SDS011;7521;51.700;6.874;2024-03-02T18:17:07;2.30;;;1.10;;
14858;SDS011;7521;51.700;6.874;2024-03-02T18:20:12;1.47;;;0.80;;
14858;SDS011;7521;51.700;6.874;2024-03-02T18:23:17;1.83;;;0.83;;
14858;SDS011;7521;51.700;6.874;2024-03-02T18:26:23;2.33;;;1.05;;
14858;SDS011;7521;51.700;6.874;2024-03-02T18:29:29;2.07;;;1.10;;
14858;SDS011;7521;51.700;6.874;2024-03-02T18:32:34;1.48;;;1.30;;
14858;SDS011;7521;51.700;6.874;2024-03-02T18:35:39;2.10;;;1.70;;
14858;SDS011;7521;51.700;6.874;2024-03-02T18:38:44;1.40;;;1.10;;
14858;SDS011;7521;51.700;6.874;2024-03-02T18:41:49;2.57;;;1.23;;
14858;SDS011;7521;51.700;6.874;2024-03-02T18:44:55;2.00;;;1.05;;
14858;SDS011;7521;51.700;6.874;2024-03-02T18:48:00;2.13;;;1.30;;
14858;SDS011;7521;51.700;6.874;2024-03-02T18:51:07;1.63;;;1.10;;
14858;SDS011;7521;51.700;6.874;2024-03-02T18:54:12;1.70;;;1.20;;
14858;SDS011;7521;51.700;6.874;2024-03-02T18:57:18;1.60;;;1.30;;
14858;SDS011;7521;51.700;6.874;2024-03-02T19:00:23;2.37;;;1.03;;
14858;SDS011;7521;51.700;6.874;2024-03-02T19:03:28;2.27;;;1.47;;
14858;SDS011;7521;51.700;6.874;2024-03-02T19:06:33;1.70;;;1.00;;